sensor_id;sensor_type;location;lat;lon;timestamp;temperature;humidity
9448;DHT22;4762;48.128;11.376;2022-09-04T00:00:11;12.80;99.90
9448;DHT22;4762;48.128;11.376;2022-09-04T00:05:47;12.80;99.90
9448;DHT22;4762;48.128;11.376;2022-09-04T00:07:48;12.80;99.90
9448;DHT22;4762;48.128;11.376;2022-09-04T00:10:03;12.70;99.90
9448;DHT22;4762;48.128;11.376;2022-09-04T00:12:05;12.70;99.90
9448;DHT22;4762;48.128;11.376;2022-09-04T00:15:20;12.70;99.90
9448;DHT22;4762;48.128;11.376;2022-09-04T00:16:50;12.60;99.90
9448;DHT22;4762;48.128;11.376;2022-09-04T00:19:00;12.60;99.90
9448;DHT22;4762;48.128;11.376;2022-09-04T00:21:49;12.60;99.90
9448;DHT22;4762;48.128;11.376;2022-09-04T00:23:48;12.50;99.90
9448;DHT22;4762;48.128;11.376;2022-09-04T00:26:02;12.50;99.90
9448;DHT22;4762;48.128;11.376;2022-09-04T00:28:18;12.60;99.90
9448;DHT22;4762;48.128;11.376;2022-09-04T00:30:28;12.50;99.90
9448;DHT22;4762;48.128;11.376;2022-09-04T00:33:10;12.60;99.90
9448;DHT22;4762;48.128;11.376;2022-09-04T00:35:16;12.60;99.90
9448;DHT22;4762;48.128;11.376;2022-09-04T00:37:24;12.60;99.90
9448;DHT22;4762;48.128;11.376;2022-09-04T00:39:54;12.60;99.90
9448;DHT22;4762;48.128;11.376;2022-09-04T00:42:12;12.70;99.90
9448;DHT22;4762;48.128;11.376;2022-09-04T00:44:24;12.70;99.90
9448;DHT22;4762;48.128;11.376;2022-09-04T00:47:05;12.70;99.90
9448;DHT22;4762;48.128;11.376;2022-09-04T00:51:28;12.60;99.90
9448;DHT22;4762;48.128;11.376;2022-09-04T04:30:11;12.20;99.90
9448;DHT22;4762;48.128;11.376;2022-09-04T04:55:52;12.20;99.90
9448;DHT22;4762;48.128;11.376;2022-09-04T04:58:20;12.30;99.90
9448;DHT22;4762;48.128;11.376;2022-09-04T05:00:26;12.20;99.90
9448;DHT22;4762;48.128;11.376;2022-09-04T05:02:30;12.30;99.90
9448;DHT22;4762;48.128;11.376;2022-09-04T05:04:42;12.30;99.90
9448;DHT22;4762;48.128;11.376;2022-09-04T05:06:48;12.20;99.90
9448;DHT22;4762;48.128;11.376;2022-09-04T05:09:10;12.30;99.90
9448;DHT22;4762;48.128;11.376;2022-09-04T05:11:34;12.20;99.90
9448;DHT22;4762;48.128;11.376;2022-09-04T05:13:39;12.40;99.90
9448;DHT22;4762;48.128;11.376;2022-09-04T05:15:47;12.50;99.90
9448;DHT22;4762;48.128;11.376;2022-09-04T05:17:50;12.60;99.90
9448;DHT22;4762;48.128;11.376;2022-09-04T05:22:20;12.60;99.90
9448;DHT22;4762;48.128;11.376;2022-09-04T05:24:37;12.50;99.90
9448;DHT22;4762;48.128;11.376;2022-09-04T05:26:55;12.40;99.90
9448;DHT22;4762;48.128;11.376;2022-09-04T05:29:08;12.50;99.90
9448;DHT22;4762;48.128;11.376;2022-09-04T05:31:22;12.60;99.90
9448;DHT22;4762;48.128;11.376;2022-09-04T05:36:01;12.60;99.90
9448;DHT22;4762;48.128;11.376;2022-09-04T05:38:21;12.70;99.90
9448;DHT22;4762;48.128;11.376;2022-09-04T05:40:45;12.70;99.90
9448;DHT22;4762;48.128;11.376;2022-09-04T05:42:44;12.70;99.90
9448;DHT22;4762;48.128;11.376;2022-09-04T05:44:48;12.70;99.90
9448;DHT22;4762;48.128;11.376;2022-09-04T05:46:56;12.70;99.90
9448;DHT22;4762;48.128;11.376;2022-09-04T05:49:02;12.90;99.90
9448;DHT22;4762;48.128;11.376;2022-09-04T05:53:51;13.00;99.90
9448;DHT22;4762;48.128;11.376;2022-09-04T05:56:05;13.10;99.90
9448;DHT22;4762;48.128;11.376;2022-09-04T06:05:12;13.50;99.90
9448;DHT22;4762;48.128;11.376;2022-09-04T06:07:17;13.50;99.90
9448;DHT22;4762;48.128;11.376;2022-09-04T06:09:21;13.70;99.90
9448;DHT22;4762;48.128;11.376;2022-09-04T06:13:54;13.90;99.90
9448;DHT22;4762;48.128;11.376;2022-09-04T06:18:48;14.10;99.90
9448;DHT22;4762;48.128;11.376;2022-09-04T06:21:03;14.20;99.90
9448;DHT22;4762;48.128;11.376;2022-09-04T06:25:35;14.40;99.90
9448;DHT22;4762;48.128;11.376;2022-09-04T06:30:11;14.90;99.90
9448;DHT22;4762;48.128;11.376;2022-09-04T06:32:19;15.10;99.90
9448;DHT22;4762;48.128;11.376;2022-09-04T06:36:41;15.30;99.90
9448;DHT22;4762;48.128;11.376;2022-09-04T06:38:55;15.70;99.90
9448;DHT22;4762;48.128;11.376;2022-09-04T06:41:04;16.10;99.90
9448;DHT22;4762;48.128;11.376;2022-09-04T06:43:16;16.80;99.90
9448;DHT22;4762;48.128;11.376;2022-09-04T06:46:32;17.10;99.90
9448;DHT22;4762;48.128;11.376;2022-09-04T06:47:46;17.40;99.90
9448;DHT22;4762;48.128;11.376;2022-09-04T06:49:59;17.60;99.90
9448;DHT22;4762;48.128;11.376;2022-09-04T06:52:08;17.70;98.70
9448;DHT22;4762;48.128;11.376;2022-09-04T06:54:22;18.20;99.90
9448;DHT22;4762;48.128;11.376;2022-09-04T06:59:14;18.60;99.90
9448;DHT22;4762;48.128;11.376;2022-09-04T07:01:18;18.80;98.70
9448;DHT22;4762;48.128;11.376;2022-09-04T07:07:58;19.00;96.10
9448;DHT22;4762;48.128;11.376;2022-09-04T07:10:07;19.20;95.70
9448;DHT22;4762;48.128;11.376;2022-09-04T07:12:19;18.90;94.80
9448;DHT22;4762;48.128;11.376;2022-09-04T07:14:27;19.10;96.00
9448;DHT22;4762;48.128;11.376;2022-09-04T07:16:40;19.20;94.10
9448;DHT22;4762;48.128;11.376;2022-09-04T07:18:58;19.40;94.00
9448;DHT22;4762;48.128;11.376;2022-09-04T07:21:23;19.60;93.20
9448;DHT22;4762;48.128;11.376;2022-09-04T07:23:29;19.80;94.90
9448;DHT22;4762;48.128;11.376;2022-09-04T07:30:07;19.90;91.20
9448;DHT22;4762;48.128;11.376;2022-09-04T07:32:14;20.10;91.30
9448;DHT22;4762;48.128;11.376;2022-09-04T07:34:24;20.20;89.90
9448;DHT22;4762;48.128;11.376;2022-09-04T07:36:37;20.30;90.90
9448;DHT22;4762;48.128;11.376;2022-09-04T07:38:55;20.40;87.80
9448;DHT22;4762;48.128;11.376;2022-09-04T07:41:06;20.50;91.00
9448;DHT22;4762;48.128;11.376;2022-09-04T07:43:21;20.70;87.80
9448;DHT22;4762;48.128;11.376;2022-09-04T07:45:42;20.90;92.90
9448;DHT22;4762;48.128;11.376;2022-09-04T07:48:03;20.90;86.00
9448;DHT22;4762;48.128;11.376;2022-09-04T08:04:46;22.00;82.70
9448;DHT22;4762;48.128;11.376;2022-09-04T08:06:55;22.00;82.00
9448;DHT22;4762;48.128;11.376;2022-09-04T08:09:04;21.50;82.90
9448;DHT22;4762;48.128;11.376;2022-09-04T08:13:37;21.70;83.80
9448;DHT22;4762;48.128;11.376;2022-09-04T08:15:41;21.90;84.90
9448;DHT22;4762;48.128;11.376;2022-09-04T08:19:07;21.70;81.90
9448;DHT22;4762;48.128;11.376;2022-09-04T08:20:20;21.50;82.60
9448;DHT22;4762;48.128;11.376;2022-09-04T08:22:21;21.80;82.90
9448;DHT22;4762;48.128;11.376;2022-09-04T08:26:50;22.10;82.60
9448;DHT22;4762;48.128;11.376;2022-09-04T08:28:58;22.30;83.20
9448;DHT22;4762;48.128;11.376;2022-09-04T08:30:58;22.80;81.00
9448;DHT22;4762;48.128;11.376;2022-09-04T08:33:13;23.00;83.30
9448;DHT22;4762;48.128;11.376;2022-09-04T08:35:21;23.70;80.80
9448;DHT22;4762;48.128;11.376;2022-09-04T08:37:31;22.70;81.10
9448;DHT22;4762;48.128;11.376;2022-09-04T08:39:36;22.70;81.20
9448;DHT22;4762;48.128;11.376;2022-09-04T08:53:28;24.10;79.20
9448;DHT22;4762;48.128;11.376;2022-09-04T09:00:36;23.10;79.00
9448;DHT22;4762;48.128;11.376;2022-09-04T09:02:54;24.00;77.10
9448;DHT22;4762;48.128;11.376;2022-09-04T09:05:08;24.20;77.30
9448;DHT22;4762;48.128;11.376;2022-09-04T09:14:21;24.40;73.60
9448;DHT22;4762;48.128;11.376;2022-09-04T09:16:19;25.10;74.50
9448;DHT22;4762;48.128;11.376;2022-09-04T09:18:53;25.20;75.00
9448;DHT22;4762;48.128;11.376;2022-09-04T09:21:00;24.60;74.00
9448;DHT22;4762;48.128;11.376;2022-09-04T09:25:17;24.60;72.00
9448;DHT22;4762;48.128;11.376;2022-09-04T09:27:44;24.70;77.30
9448;DHT22;4762;48.128;11.376;2022-09-04T09:30:05;25.20;72.90
9448;DHT22;4762;48.128;11.376;2022-09-04T09:32:19;24.10;75.80
9448;DHT22;4762;48.128;11.376;2022-09-04T09:34:25;24.20;75.30
9448;DHT22;4762;48.128;11.376;2022-09-04T09:41:38;25.40;74.80
9448;DHT22;4762;48.128;11.376;2022-09-04T09:43:51;26.00;72.20
9448;DHT22;4762;48.128;11.376;2022-09-04T09:50:26;26.20;67.60
9448;DHT22;4762;48.128;11.376;2022-09-04T09:52:35;27.00;72.40
9448;DHT22;4762;48.128;11.376;2022-09-04T09:55:07;26.10;69.70
9448;DHT22;4762;48.128;11.376;2022-09-04T09:57:47;25.50;67.60
9448;DHT22;4762;48.128;11.376;2022-09-04T10:01:59;26.90;64.90
9448;DHT22;4762;48.128;11.376;2022-09-04T10:04:25;26.00;69.80
9448;DHT22;4762;48.128;11.376;2022-09-04T10:06:30;25.40;69.40
9448;DHT22;4762;48.128;11.376;2022-09-04T10:08:36;25.90;69.50
9448;DHT22;4762;48.128;11.376;2022-09-04T10:10:49;25.50;69.80
9448;DHT22;4762;48.128;11.376;2022-09-04T10:13:13;25.00;69.40
9448;DHT22;4762;48.128;11.376;2022-09-04T10:15:35;25.30;67.00
9448;DHT22;4762;48.128;11.376;2022-09-04T10:25:22;26.30;68.40
9448;DHT22;4762;48.128;11.376;2022-09-04T10:27:28;27.40;63.90
9448;DHT22;4762;48.128;11.376;2022-09-04T10:32:05;28.10;59.90
9448;DHT22;4762;48.128;11.376;2022-09-04T10:39:22;25.80;68.10
9448;DHT22;4762;48.128;11.376;2022-09-04T10:41:41;26.10;68.20
9448;DHT22;4762;48.128;11.376;2022-09-04T10:43:53;26.10;64.80
9448;DHT22;4762;48.128;11.376;2022-09-04T10:46:00;25.80;64.70
9448;DHT22;4762;48.128;11.376;2022-09-04T10:48:09;24.90;69.60
9448;DHT22;4762;48.128;11.376;2022-09-04T10:50:25;24.90;70.80
9448;DHT22;4762;48.128;11.376;2022-09-04T10:52:38;24.10;68.50
9448;DHT22;4762;48.128;11.376;2022-09-04T10:54:48;24.20;70.00
9448;DHT22;4762;48.128;11.376;2022-09-04T10:56:57;24.30;70.00
9448;DHT22;4762;48.128;11.376;2022-09-04T11:03:27;24.30;68.90
9448;DHT22;4762;48.128;11.376;2022-09-04T11:05:48;24.10;67.30
9448;DHT22;4762;48.128;11.376;2022-09-04T11:10:25;24.10;70.60
9448;DHT22;4762;48.128;11.376;2022-09-04T11:12:32;24.90;65.40
9448;DHT22;4762;48.128;11.376;2022-09-04T11:14:50;25.90;65.70
9448;DHT22;4762;48.128;11.376;2022-09-04T11:17:07;25.60;66.10
9448;DHT22;4762;48.128;11.376;2022-09-04T11:19:22;25.90;65.10
9448;DHT22;4762;48.128;11.376;2022-09-04T11:21:38;25.30;63.40
9448;DHT22;4762;48.128;11.376;2022-09-04T11:24:33;24.70;68.20
9448;DHT22;4762;48.128;11.376;2022-09-04T11:26:27;24.60;65.60
9448;DHT22;4762;48.128;11.376;2022-09-04T11:28:40;25.10;68.40
9448;DHT22;4762;48.128;11.376;2022-09-04T11:33:37;27.40;63.00
9448;DHT22;4762;48.128;11.376;2022-09-04T11:35:44;26.90;61.30
9448;DHT22;4762;48.128;11.376;2022-09-04T11:38:33;26.90;63.30
9448;DHT22;4762;48.128;11.376;2022-09-04T11:40:25;26.60;58.10
9448;DHT22;4762;48.128;11.376;2022-09-04T11:42:32;26.60;57.70
9448;DHT22;4762;48.128;11.376;2022-09-04T11:45:10;26.30;59.00
9448;DHT22;4762;48.128;11.376;2022-09-04T11:47:07;25.20;64.40
9448;DHT22;4762;48.128;11.376;2022-09-04T11:51:29;24.90;63.20
9448;DHT22;4762;48.128;11.376;2022-09-04T11:53:33;25.40;64.50
9448;DHT22;4762;48.128;11.376;2022-09-04T11:55:52;25.40;63.20
9448;DHT22;4762;48.128;11.376;2022-09-04T11:58:12;26.20;59.50
9448;DHT22;4762;48.128;11.376;2022-09-04T12:00:12;26.90;58.20
9448;DHT22;4762;48.128;11.376;2022-09-04T12:02:19;26.00;60.90
9448;DHT22;4762;48.128;11.376;2022-09-04T12:05:07;27.10;58.70
9448;DHT22;4762;48.128;11.376;2022-09-04T12:08:02;27.10;59.80
9448;DHT22;4762;48.128;11.376;2022-09-04T12:09:28;26.70;58.40
9448;DHT22;4762;48.128;11.376;2022-09-04T12:11:46;26.20;59.80
9448;DHT22;4762;48.128;11.376;2022-09-04T12:14:09;27.20;56.70
9448;DHT22;4762;48.128;11.376;2022-09-04T12:16:31;28.40;56.30
9448;DHT22;4762;48.128;11.376;2022-09-04T12:18:40;29.10;56.70
9448;DHT22;4762;48.128;11.376;2022-09-04T12:20:49;28.00;57.20
9448;DHT22;4762;48.128;11.376;2022-09-04T12:26:21;27.40;55.10
9448;DHT22;4762;48.128;11.376;2022-09-04T12:28:25;27.10;57.00
9448;DHT22;4762;48.128;11.376;2022-09-04T12:30:19;28.30;56.40
9448;DHT22;4762;48.128;11.376;2022-09-04T12:32:43;27.80;56.90
9448;DHT22;4762;48.128;11.376;2022-09-04T12:34:45;27.30;58.60
9448;DHT22;4762;48.128;11.376;2022-09-04T12:36:57;27.80;56.70
9448;DHT22;4762;48.128;11.376;2022-09-04T12:43:52;27.70;53.90
9448;DHT22;4762;48.128;11.376;2022-09-04T12:47:07;27.40;53.30
9448;DHT22;4762;48.128;11.376;2022-09-04T12:48:55;27.70;55.50
9448;DHT22;4762;48.128;11.376;2022-09-04T12:51:00;29.10;56.00
9448;DHT22;4762;48.128;11.376;2022-09-04T12:53:21;29.00;51.50
9448;DHT22;4762;48.128;11.376;2022-09-04T12:55:25;28.20;52.20
9448;DHT22;4762;48.128;11.376;2022-09-04T12:57:48;28.60;53.50
9448;DHT22;4762;48.128;11.376;2022-09-04T13:00:07;29.10;52.40
9448;DHT22;4762;48.128;11.376;2022-09-04T13:02:29;28.50;56.00
9448;DHT22;4762;48.128;11.376;2022-09-04T13:04:32;28.50;53.90
9448;DHT22;4762;48.128;11.376;2022-09-04T13:09:01;28.80;53.40
9448;DHT22;4762;48.128;11.376;2022-09-04T13:15:57;29.50;54.20
9448;DHT22;4762;48.128;11.376;2022-09-04T13:18:21;29.50;51.30
9448;DHT22;4762;48.128;11.376;2022-09-04T13:20:31;28.50;53.80
9448;DHT22;4762;48.128;11.376;2022-09-04T13:22:43;29.70;52.90
9448;DHT22;4762;48.128;11.376;2022-09-04T13:24:50;30.40;53.50
9448;DHT22;4762;48.128;11.376;2022-09-04T13:27:26;30.60;49.50
9448;DHT22;4762;48.128;11.376;2022-09-04T13:29:23;29.30;50.60
9448;DHT22;4762;48.128;11.376;2022-09-04T13:31:57;28.30;53.40
9448;DHT22;4762;48.128;11.376;2022-09-04T13:34:02;27.70;54.90
9448;DHT22;4762;48.128;11.376;2022-09-04T13:36:12;27.80;53.60
9448;DHT22;4762;48.128;11.376;2022-09-04T13:40:55;28.70;53.40
9448;DHT22;4762;48.128;11.376;2022-09-04T13:43:06;28.90;54.30
9448;DHT22;4762;48.128;11.376;2022-09-04T13:45:27;28.50;53.10
9448;DHT22;4762;48.128;11.376;2022-09-04T13:47:38;28.70;52.60
9448;DHT22;4762;48.128;11.376;2022-09-04T13:49:42;29.10;51.40
9448;DHT22;4762;48.128;11.376;2022-09-04T13:51:49;29.00;51.40
9448;DHT22;4762;48.128;11.376;2022-09-04T13:54:01;29.30;49.20
9448;DHT22;4762;48.128;11.376;2022-09-04T13:56:04;29.70;48.80
9448;DHT22;4762;48.128;11.376;2022-09-04T13:58:22;30.60;54.50
9448;DHT22;4762;48.128;11.376;2022-09-04T14:00:24;31.90;48.90
9448;DHT22;4762;48.128;11.376;2022-09-04T14:02:27;31.00;51.50
9448;DHT22;4762;48.128;11.376;2022-09-04T14:04:31;31.30;50.20
9448;DHT22;4762;48.128;11.376;2022-09-04T14:06:33;30.70;48.90
9448;DHT22;4762;48.128;11.376;2022-09-04T14:08:36;30.30;49.50
9448;DHT22;4762;48.128;11.376;2022-09-04T14:10:51;29.10;50.10
9448;DHT22;4762;48.128;11.376;2022-09-04T14:17:37;29.40;50.70
9448;DHT22;4762;48.128;11.376;2022-09-04T14:20:15;29.70;51.00
9448;DHT22;4762;48.128;11.376;2022-09-04T14:22:10;29.50;48.90
9448;DHT22;4762;48.128;11.376;2022-09-04T14:24:16;28.40;53.00
9448;DHT22;4762;48.128;11.376;2022-09-04T14:28:37;28.50;53.80
9448;DHT22;4762;48.128;11.376;2022-09-04T14:30:41;29.50;50.40
9448;DHT22;4762;48.128;11.376;2022-09-04T14:35:17;29.40;54.20
9448;DHT22;4762;48.128;11.376;2022-09-04T14:39:48;29.30;51.80
9448;DHT22;4762;48.128;11.376;2022-09-04T14:41:53;28.80;52.30
9448;DHT22;4762;48.128;11.376;2022-09-04T14:44:02;29.40;51.90
9448;DHT22;4762;48.128;11.376;2022-09-04T14:46:22;29.80;50.60
9448;DHT22;4762;48.128;11.376;2022-09-04T14:48:27;29.30;49.20
9448;DHT22;4762;48.128;11.376;2022-09-04T14:50:30;29.70;50.20
9448;DHT22;4762;48.128;11.376;2022-09-04T14:52:33;30.00;48.00
9448;DHT22;4762;48.128;11.376;2022-09-04T14:54:35;29.00;49.60
9448;DHT22;4762;48.128;11.376;2022-09-04T14:56:42;28.60;51.30
9448;DHT22;4762;48.128;11.376;2022-09-04T15:01:07;28.00;51.90
9448;DHT22;4762;48.128;11.376;2022-09-04T15:03:15;28.40;51.20
9448;DHT22;4762;48.128;11.376;2022-09-04T15:05:24;28.30;53.20
9448;DHT22;4762;48.128;11.376;2022-09-04T15:09:34;28.80;50.30
9448;DHT22;4762;48.128;11.376;2022-09-04T15:11:37;28.90;49.60
9448;DHT22;4762;48.128;11.376;2022-09-04T15:14:04;29.10;46.90
9448;DHT22;4762;48.128;11.376;2022-09-04T15:16:12;30.00;47.10
9448;DHT22;4762;48.128;11.376;2022-09-04T15:18:22;29.30;47.40
9448;DHT22;4762;48.128;11.376;2022-09-04T15:20:24;28.40;49.40
9448;DHT22;4762;48.128;11.376;2022-09-04T15:22:48;27.90;50.00
9448;DHT22;4762;48.128;11.376;2022-09-04T15:24:59;28.30;50.60
9448;DHT22;4762;48.128;11.376;2022-09-04T15:27:08;29.60;53.70
9448;DHT22;4762;48.128;11.376;2022-09-04T15:29:10;30.20;46.70
9448;DHT22;4762;48.128;11.376;2022-09-04T15:33:27;30.20;47.50
9448;DHT22;4762;48.128;11.376;2022-09-04T15:35:30;30.40;50.20
9448;DHT22;4762;48.128;11.376;2022-09-04T15:37:33;29.90;48.80
9448;DHT22;4762;48.128;11.376;2022-09-04T15:39:37;30.30;46.50
9448;DHT22;4762;48.128;11.376;2022-09-04T15:41:41;30.80;50.30
9448;DHT22;4762;48.128;11.376;2022-09-04T15:43:50;30.10;47.70
9448;DHT22;4762;48.128;11.376;2022-09-04T15:46:04;30.20;48.70
9448;DHT22;4762;48.128;11.376;2022-09-04T15:48:26;30.10;46.70
9448;DHT22;4762;48.128;11.376;2022-09-04T15:50:27;29.40;45.30
9448;DHT22;4762;48.128;11.376;2022-09-04T15:52:44;28.90;46.90
9448;DHT22;4762;48.128;11.376;2022-09-04T15:56:58;28.80;47.80
9448;DHT22;4762;48.128;11.376;2022-09-04T16:01:13;28.80;47.20
9448;DHT22;4762;48.128;11.376;2022-09-04T16:03:24;28.20;47.80
9448;DHT22;4762;48.128;11.376;2022-09-04T16:05:31;27.40;48.60
9448;DHT22;4762;48.128;11.376;2022-09-04T16:07:38;28.50;48.70
9448;DHT22;4762;48.128;11.376;2022-09-04T16:09:42;28.30;49.70
9448;DHT22;4762;48.128;11.376;2022-09-04T16:11:44;27.50;48.10
9448;DHT22;4762;48.128;11.376;2022-09-04T16:13:55;27.20;49.50
9448;DHT22;4762;48.128;11.376;2022-09-04T16:16:00;26.90;50.00
9448;DHT22;4762;48.128;11.376;2022-09-04T16:18:08;26.60;51.30
9448;DHT22;4762;48.128;11.376;2022-09-04T16:20:08;26.90;52.60
9448;DHT22;4762;48.128;11.376;2022-09-04T16:22:42;27.20;50.40
9448;DHT22;4762;48.128;11.376;2022-09-04T16:24:32;26.30;51.90
9448;DHT22;4762;48.128;11.376;2022-09-04T16:26:30;26.50;51.70
9448;DHT22;4762;48.128;11.376;2022-09-04T16:28:37;26.10;53.70
9448;DHT22;4762;48.128;11.376;2022-09-04T16:30:44;26.40;54.90
9448;DHT22;4762;48.128;11.376;2022-09-04T16:32:45;26.50;53.30
9448;DHT22;4762;48.128;11.376;2022-09-04T16:34:50;26.40;51.80
9448;DHT22;4762;48.128;11.376;2022-09-04T16:37:13;26.00;51.90
9448;DHT22;4762;48.128;11.376;2022-09-04T16:39:32;26.10;54.80
9448;DHT22;4762;48.128;11.376;2022-09-04T16:46:08;25.50;55.80
9448;DHT22;4762;48.128;11.376;2022-09-04T16:48:24;25.70;56.00
9448;DHT22;4762;48.128;11.376;2022-09-04T16:50:28;25.80;57.10
9448;DHT22;4762;48.128;11.376;2022-09-04T16:52:48;25.70;55.40
9448;DHT22;4762;48.128;11.376;2022-09-04T16:54:52;25.70;57.20
9448;DHT22;4762;48.128;11.376;2022-09-04T16:57:12;25.50;55.10
9448;DHT22;4762;48.128;11.376;2022-09-04T16:59:50;25.20;54.40
9448;DHT22;4762;48.128;11.376;2022-09-04T17:01:43;25.00;55.40
9448;DHT22;4762;48.128;11.376;2022-09-04T17:04:11;24.80;54.60
9448;DHT22;4762;48.128;11.376;2022-09-04T17:06:13;25.00;56.00
9448;DHT22;4762;48.128;11.376;2022-09-04T17:08:14;25.00;54.00
9448;DHT22;4762;48.128;11.376;2022-09-04T17:10:25;24.90;55.90
9448;DHT22;4762;48.128;11.376;2022-09-04T17:12:45;24.80;54.70
9448;DHT22;4762;48.128;11.376;2022-09-04T17:14:50;24.80;56.90
9448;DHT22;4762;48.128;11.376;2022-09-04T17:17:02;24.50;57.10
9448;DHT22;4762;48.128;11.376;2022-09-04T17:18:59;24.70;57.70
9448;DHT22;4762;48.128;11.376;2022-09-04T17:23:40;24.50;57.20
9448;DHT22;4762;48.128;11.376;2022-09-04T17:28:25;24.30;57.40
9448;DHT22;4762;48.128;11.376;2022-09-04T17:30:38;24.20;58.40
9448;DHT22;4762;48.128;11.376;2022-09-04T17:32:45;23.90;58.80
9448;DHT22;4762;48.128;11.376;2022-09-04T17:34:51;23.80;58.30
9448;DHT22;4762;48.128;11.376;2022-09-04T17:36:52;23.80;59.00
9448;DHT22;4762;48.128;11.376;2022-09-04T17:38:56;23.80;60.20
9448;DHT22;4762;48.128;11.376;2022-09-04T17:41:05;23.70;60.70
9448;DHT22;4762;48.128;11.376;2022-09-04T17:43:28;23.60;62.30
9448;DHT22;4762;48.128;11.376;2022-09-04T17:45:36;23.30;62.90
9448;DHT22;4762;48.128;11.376;2022-09-04T17:47:35;23.10;63.80
9448;DHT22;4762;48.128;11.376;2022-09-04T17:49:41;23.00;64.00
9448;DHT22;4762;48.128;11.376;2022-09-04T17:51:57;22.60;65.60
9448;DHT22;4762;48.128;11.376;2022-09-04T17:54:00;22.60;65.60
9448;DHT22;4762;48.128;11.376;2022-09-04T17:56:24;22.30;67.20
9448;DHT22;4762;48.128;11.376;2022-09-04T17:58:46;22.00;68.40
9448;DHT22;4762;48.128;11.376;2022-09-04T18:00:53;22.10;68.70
9448;DHT22;4762;48.128;11.376;2022-09-04T18:03:13;22.10;68.20
9448;DHT22;4762;48.128;11.376;2022-09-04T18:05:23;21.90;69.30
9448;DHT22;4762;48.128;11.376;2022-09-04T18:07:29;21.60;69.70
9448;DHT22;4762;48.128;11.376;2022-09-04T18:09:45;21.50;70.20
9448;DHT22;4762;48.128;11.376;2022-09-04T18:11:49;21.40;70.60
9448;DHT22;4762;48.128;11.376;2022-09-04T18:13:53;21.20;71.20
9448;DHT22;4762;48.128;11.376;2022-09-04T18:16:03;21.20;71.80
9448;DHT22;4762;48.128;11.376;2022-09-04T18:18:07;21.30;71.80
9448;DHT22;4762;48.128;11.376;2022-09-04T18:20:13;21.30;71.00
9448;DHT22;4762;48.128;11.376;2022-09-04T18:22:28;21.10;71.50
9448;DHT22;4762;48.128;11.376;2022-09-04T18:24:42;20.80;72.40
9448;DHT22;4762;48.128;11.376;2022-09-04T18:27:08;20.90;72.50
9448;DHT22;4762;48.128;11.376;2022-09-04T18:29:29;20.90;73.70
9448;DHT22;4762;48.128;11.376;2022-09-04T18:31:53;20.90;73.40
9448;DHT22;4762;48.128;11.376;2022-09-04T18:34:01;20.80;72.90
9448;DHT22;4762;48.128;11.376;2022-09-04T18:36:16;20.60;73.40
9448;DHT22;4762;48.128;11.376;2022-09-04T18:38:34;20.50;73.20
9448;DHT22;4762;48.128;11.376;2022-09-04T18:40:45;20.30;74.00
9448;DHT22;4762;48.128;11.376;2022-09-04T18:42:58;20.10;74.70
9448;DHT22;4762;48.128;11.376;2022-09-04T18:45:21;20.10;75.10
9448;DHT22;4762;48.128;11.376;2022-09-04T18:47:34;20.00;74.60
9448;DHT22;4762;48.128;11.376;2022-09-04T18:49:30;20.00;74.80
9448;DHT22;4762;48.128;11.376;2022-09-04T18:51:49;20.00;75.20
9448;DHT22;4762;48.128;11.376;2022-09-04T18:53:55;20.00;75.40
9448;DHT22;4762;48.128;11.376;2022-09-04T18:56:00;19.80;75.80
9448;DHT22;4762;48.128;11.376;2022-09-04T18:59:28;19.80;76.50
9448;DHT22;4762;48.128;11.376;2022-09-04T19:00:47;19.60;77.20
9448;DHT22;4762;48.128;11.376;2022-09-04T19:03:24;19.70;77.20
9448;DHT22;4762;48.128;11.376;2022-09-04T19:05:11;19.70;77.40
9448;DHT22;4762;48.128;11.376;2022-09-04T19:07:26;19.60;77.90
9448;DHT22;4762;48.128;11.376;2022-09-04T19:09:45;19.50;78.10
9448;DHT22;4762;48.128;11.376;2022-09-04T19:11:42;19.60;78.60
9448;DHT22;4762;48.128;11.376;2022-09-04T19:13:47;19.20;79.10
9448;DHT22;4762;48.128;11.376;2022-09-04T19:15:52;19.20;79.30
9448;DHT22;4762;48.128;11.376;2022-09-04T19:17:56;19.10;79.80
9448;DHT22;4762;48.128;11.376;2022-09-04T19:20:08;19.00;80.40
9448;DHT22;4762;48.128;11.376;2022-09-04T19:22:12;19.00;79.70
9448;DHT22;4762;48.128;11.376;2022-09-04T19:24:30;19.20;79.80
9448;DHT22;4762;48.128;11.376;2022-09-04T19:26:36;19.10;79.70
9448;DHT22;4762;48.128;11.376;2022-09-04T19:28:45;18.90;80.40
9448;DHT22;4762;48.128;11.376;2022-09-04T19:30:56;18.80;80.30
9448;DHT22;4762;48.128;11.376;2022-09-04T19:33:12;18.60;81.00
9448;DHT22;4762;48.128;11.376;2022-09-04T19:35:16;18.40;81.40
9448;DHT22;4762;48.128;11.376;2022-09-04T19:37:26;18.00;82.70
9448;DHT22;4762;48.128;11.376;2022-09-04T19:39:34;17.80;83.20
9448;DHT22;4762;48.128;11.376;2022-09-04T19:44:14;18.20;81.60
9448;DHT22;4762;48.128;11.376;2022-09-04T19:46:25;18.40;82.10
9448;DHT22;4762;48.128;11.376;2022-09-04T19:48:34;18.50;81.80
9448;DHT22;4762;48.128;11.376;2022-09-04T19:50:33;18.60;81.40
9448;DHT22;4762;48.128;11.376;2022-09-04T19:52:37;18.50;81.30
9448;DHT22;4762;48.128;11.376;2022-09-04T19:54:45;18.20;81.60
9448;DHT22;4762;48.128;11.376;2022-09-04T19:56:50;18.10;82.20
9448;DHT22;4762;48.128;11.376;2022-09-04T19:58:59;18.10;82.90
9448;DHT22;4762;48.128;11.376;2022-09-04T20:00:59;17.90;82.90
9448;DHT22;4762;48.128;11.376;2022-09-04T20:03:04;17.90;82.90
9448;DHT22;4762;48.128;11.376;2022-09-04T20:05:15;17.80;83.40
9448;DHT22;4762;48.128;11.376;2022-09-04T20:07:15;17.60;83.90
9448;DHT22;4762;48.128;11.376;2022-09-04T20:09:43;17.70;83.90
9448;DHT22;4762;48.128;11.376;2022-09-04T20:11:49;17.60;83.80
9448;DHT22;4762;48.128;11.376;2022-09-04T20:13:54;17.60;84.10
9448;DHT22;4762;48.128;11.376;2022-09-04T20:15:59;17.70;83.90
9448;DHT22;4762;48.128;11.376;2022-09-04T20:18:06;17.60;83.80
9448;DHT22;4762;48.128;11.376;2022-09-04T20:20:15;17.60;83.80
9448;DHT22;4762;48.128;11.376;2022-09-04T20:22:29;17.60;84.60
9448;DHT22;4762;48.128;11.376;2022-09-04T20:24:35;17.50;84.70
9448;DHT22;4762;48.128;11.376;2022-09-04T20:26:51;17.40;84.50
9448;DHT22;4762;48.128;11.376;2022-09-04T20:38:45;17.30;84.70
9448;DHT22;4762;48.128;11.376;2022-09-04T20:40:47;17.20;85.40
9448;DHT22;4762;48.128;11.376;2022-09-04T20:44:12;17.10;85.50
9448;DHT22;4762;48.128;11.376;2022-09-04T20:45:27;17.00;85.20
9448;DHT22;4762;48.128;11.376;2022-09-04T20:47:34;17.20;84.90
9448;DHT22;4762;48.128;11.376;2022-09-04T20:49:49;17.30;84.60
9448;DHT22;4762;48.128;11.376;2022-09-04T20:51:52;17.20;84.80
9448;DHT22;4762;48.128;11.376;2022-09-04T20:56:15;17.10;85.50
9448;DHT22;4762;48.128;11.376;2022-09-04T21:18:15;16.80;86.20
9448;DHT22;4762;48.128;11.376;2022-09-04T21:20:34;16.80;86.40
9448;DHT22;4762;48.128;11.376;2022-09-04T21:23:18;16.60;87.00
9448;DHT22;4762;48.128;11.376;2022-09-04T21:27:41;16.30;87.70
9448;DHT22;4762;48.128;11.376;2022-09-04T21:32:29;16.30;87.30
9448;DHT22;4762;48.128;11.376;2022-09-04T21:34:52;16.10;88.10
9448;DHT22;4762;48.128;11.376;2022-09-04T21:37:06;15.90;88.10
9448;DHT22;4762;48.128;11.376;2022-09-04T21:42:07;16.10;88.20